createdAt,value
2023-03-03T00:00:08.374Z,31.23
2023-03-03T00:02:35.190Z,31.27
2023-03-03T00:05:01.975Z,31.92
2023-03-03T00:07:28.557Z,30.08
2023-03-03T00:09:55.427Z,31.25
2023-03-03T00:12:30.315Z,32.45
2023-03-03T00:14:57.106Z,32.13
2023-03-03T00:17:26.938Z,30.55
2023-03-03T00:19:54.303Z,31.42
2023-03-03T00:22:38.308Z,33.13
2023-03-03T00:25:29.131Z,29.48
2023-03-03T00:27:56.680Z,29.95
2023-03-03T00:30:25.514Z,33.45
2023-03-03T00:32:55.887Z,33.30
2023-03-03T00:35:38.938Z,32.25
2023-03-03T00:38:18.167Z,32.75
2023-03-03T00:40:45.444Z,31.90
2023-03-03T00:43:36.130Z,31.10
2023-03-03T00:46:03.208Z,30.77
2023-03-03T00:48:33.268Z,31.77
2023-03-03T00:51:01.535Z,30.63
2023-03-03T00:53:30.165Z,31.88
2023-03-03T00:55:57.099Z,32.38
2023-03-03T00:58:25.647Z,32.42
2023-03-03T01:00:54.506Z,32.95
2023-03-03T01:03:24.046Z,32.90
2023-03-03T01:05:51.696Z,31.20
2023-03-03T01:08:19.869Z,29.85
2023-03-03T01:10:52.432Z,32.25
2023-03-03T01:13:21.072Z,31.88
2023-03-03T01:15:49.131Z,30.77
2023-03-03T01:18:16.134Z,30.35
2023-03-03T01:20:42.981Z,31.08
2023-03-03T01:23:09.586Z,30.67
2023-03-03T01:25:36.661Z,31.40
2023-03-03T01:28:03.644Z,30.65
2023-03-03T01:30:31.693Z,29.60
2023-03-03T01:32:58.713Z,29.50
2023-03-03T01:35:25.395Z,29.83
2023-03-03T01:37:52.184Z,29.42
2023-03-03T01:40:24.929Z,30.02
2023-03-03T01:42:52.909Z,28.52
2023-03-03T01:45:26.044Z,31.73
2023-03-03T01:48:05.668Z,30.30
2023-03-03T01:51:10.189Z,30.25
2023-03-03T01:53:39.919Z,30.27
2023-03-03T01:56:07.831Z,30.83
2023-03-03T01:58:41.812Z,30.00
2023-03-03T02:01:14.818Z,29.73
2023-03-03T02:03:42.266Z,27.60
2023-03-03T02:06:15.348Z,30.83
2023-03-03T02:09:15.201Z,31.55
2023-03-03T02:11:43.409Z,27.77
2023-03-03T02:14:11.762Z,30.15
2023-03-03T02:16:39.272Z,28.75
2023-03-03T02:19:10.066Z,28.42
2023-03-03T02:21:36.619Z,27.35
2023-03-03T02:24:12.368Z,29.92
2023-03-03T02:26:42.878Z,29.92
2023-03-03T02:29:10.615Z,29.95
2023-03-03T02:31:38.786Z,28.33
2023-03-03T02:34:06.226Z,28.65
2023-03-03T02:36:39.210Z,27.95
2023-03-03T02:39:26.922Z,29.30
2023-03-03T02:42:24.200Z,30.42
2023-03-03T02:44:50.788Z,28.63
2023-03-03T02:47:18.017Z,30.40
2023-03-03T02:49:45.360Z,29.85
2023-03-03T02:52:15.548Z,28.38
2023-03-03T02:54:42.139Z,28.15
2023-03-03T02:57:09.232Z,27.48
2023-03-03T02:59:35.837Z,27.15
2023-03-03T03:02:02.496Z,29.92
2023-03-03T03:04:29.328Z,29.45
2023-03-03T03:06:56.689Z,29.77
2023-03-03T03:09:25.364Z,30.88
2023-03-03T03:11:52.322Z,30.33
2023-03-03T03:14:19.034Z,29.58
2023-03-03T03:16:45.644Z,30.60
2023-03-03T03:19:12.704Z,29.52
2023-03-03T03:21:39.632Z,29.30
2023-03-03T03:24:06.705Z,28.75
2023-03-03T03:26:33.484Z,30.35
2023-03-03T03:29:00.189Z,27.00
2023-03-03T03:31:27.349Z,29.83
2023-03-03T03:33:54.157Z,29.30
2023-03-03T03:36:20.903Z,29.27
2023-03-03T03:38:47.555Z,27.95
2023-03-03T03:41:14.281Z,27.05
2023-03-03T03:43:41.233Z,27.13
2023-03-03T03:46:08.570Z,25.95
2023-03-03T03:48:35.623Z,27.98
2023-03-03T03:51:02.399Z,26.92
2023-03-03T03:53:29.109Z,27.88
2023-03-03T03:55:56.661Z,27.50
2023-03-03T03:58:23.386Z,28.05
2023-03-03T04:00:50.348Z,28.90
2023-03-03T04:03:17.062Z,30.23
2023-03-03T04:05:44.299Z,29.02
2023-03-03T04:08:11.415Z,29.50
2023-03-03T04:10:38.494Z,27.27
2023-03-03T04:13:05.198Z,29.88
2023-03-03T04:15:31.994Z,29.83
2023-03-03T04:17:58.671Z,29.10
2023-03-03T04:20:25.355Z,28.92
2023-03-03T04:22:52.291Z,28.30
2023-03-03T04:25:19.089Z,28.17
2023-03-03T04:27:45.830Z,26.75
2023-03-03T04:30:14.238Z,25.30
2023-03-03T04:32:41.863Z,27.52
2023-03-03T04:35:09.113Z,25.50
2023-03-03T04:37:36.394Z,25.58
2023-03-03T04:40:05.144Z,25.05
2023-03-03T04:42:31.844Z,23.88
2023-03-03T04:44:58.571Z,25.42
2023-03-03T04:47:25.259Z,23.30
2023-03-03T04:49:51.942Z,22.45
2023-03-03T04:52:18.692Z,23.83
2023-03-03T04:54:45.710Z,24.27
2023-03-03T04:57:12.371Z,23.98
2023-03-03T04:59:39.087Z,23.88
2023-03-03T05:02:05.913Z,22.88
2023-03-03T05:04:33.467Z,22.48
2023-03-03T05:07:00.195Z,22.60
2023-03-03T05:09:27.625Z,20.50
2023-03-03T05:11:54.381Z,22.05
2023-03-03T05:14:21.362Z,21.80
2023-03-03T05:16:48.178Z,20.95
2023-03-03T05:19:15.227Z,21.35
2023-03-03T05:21:42.867Z,22.35
2023-03-03T05:24:13.693Z,22.50
2023-03-03T05:26:40.777Z,21.55
2023-03-03T05:29:08.286Z,22.30
2023-03-03T05:31:35.071Z,22.48
2023-03-03T05:34:02.161Z,23.23
2023-03-03T05:36:28.840Z,21.55
2023-03-03T05:38:55.584Z,21.35
2023-03-03T05:41:22.557Z,21.13
2023-03-03T05:43:49.248Z,22.02
2023-03-03T05:46:16.180Z,22.25
2023-03-03T05:48:43.192Z,21.10
2023-03-03T05:51:10.014Z,20.80
2023-03-03T05:53:36.843Z,22.20
2023-03-03T05:56:04.073Z,21.50
2023-03-03T05:58:30.776Z,21.48
2023-03-03T06:00:57.711Z,20.63
2023-03-03T06:03:24.490Z,20.35
2023-03-03T06:05:51.137Z,20.45
2023-03-03T06:08:17.914Z,20.45
2023-03-03T06:10:44.629Z,20.90
2023-03-03T06:13:11.461Z,20.65
2023-03-03T06:15:38.293Z,20.02
2023-03-03T06:18:05.250Z,21.42
2023-03-03T06:20:32.255Z,20.50
2023-03-03T06:22:59.205Z,19.75
2023-03-03T06:25:25.920Z,20.67
2023-03-03T06:27:53.214Z,20.42
2023-03-03T06:30:20.403Z,19.73
2023-03-03T06:32:47.439Z,19.10
2023-03-03T06:35:14.707Z,18.60
2023-03-03T06:37:41.829Z,18.98
2023-03-03T06:40:10.860Z,18.58
2023-03-03T06:42:37.572Z,18.55
2023-03-03T06:45:04.837Z,18.63
2023-03-03T06:47:31.765Z,17.63
2023-03-03T06:49:58.382Z,18.58
2023-03-03T06:52:26.893Z,17.38
2023-03-03T06:54:59.124Z,17.63
2023-03-03T06:57:31.051Z,16.92
2023-03-03T07:00:14.511Z,17.75
2023-03-03T07:02:41.438Z,18.10
2023-03-03T07:05:15.705Z,16.58
2023-03-03T07:07:42.790Z,18.08
2023-03-03T07:10:22.797Z,17.15
2023-03-03T07:12:49.787Z,15.90
2023-03-03T07:15:30.715Z,16.50
2023-03-03T07:17:59.893Z,17.80
2023-03-03T07:20:36.995Z,17.55
2023-03-03T07:23:25.127Z,15.88
2023-03-03T07:25:52.951Z,15.88
2023-03-03T07:28:25.543Z,16.60
2023-03-03T07:30:53.636Z,16.90
2023-03-03T07:33:34.501Z,16.50
2023-03-03T07:36:02.783Z,14.98
2023-03-03T07:38:42.438Z,15.88
2023-03-03T07:41:13.738Z,13.77
2023-03-03T07:43:44.405Z,15.82
2023-03-03T07:46:21.679Z,15.20
2023-03-03T07:48:48.841Z,15.48
2023-03-03T07:51:28.362Z,15.15
2023-03-03T07:54:02.085Z,14.32
2023-03-03T07:56:31.426Z,15.15
2023-03-03T07:58:58.595Z,17.23
2023-03-03T08:01:44.477Z,14.73
2023-03-03T08:04:33.416Z,13.55
2023-03-03T08:07:01.347Z,14.32
2023-03-03T08:09:36.650Z,12.80
2023-03-03T08:12:38.121Z,13.15
2023-03-03T08:15:25.474Z,12.73
2023-03-03T08:17:54.284Z,12.95
2023-03-03T08:20:53.952Z,14.02
2023-03-03T08:23:21.999Z,13.27
2023-03-03T08:25:50.909Z,13.30
2023-03-03T08:28:18.018Z,13.55
2023-03-03T08:30:45.431Z,13.35
2023-03-03T08:33:12.745Z,14.32
2023-03-03T08:35:39.542Z,13.77
2023-03-03T08:38:06.586Z,13.23
2023-03-03T08:40:33.864Z,13.77
2023-03-03T08:43:00.702Z,13.77
2023-03-03T08:45:27.629Z,13.52
2023-03-03T08:47:54.926Z,15.18
2023-03-03T08:50:21.851Z,13.60
2023-03-03T08:52:49.095Z,15.43
2023-03-03T08:55:16.178Z,14.93
2023-03-03T08:57:42.844Z,14.90
2023-03-03T09:00:12.347Z,15.27
2023-03-03T09:02:39.514Z,19.85
2023-03-03T09:05:07.035Z,19.52
2023-03-03T09:07:33.942Z,17.40
2023-03-03T09:10:00.585Z,13.52
2023-03-03T09:12:37.992Z,13.18
2023-03-03T09:15:32.772Z,14.30
2023-03-03T09:20:38.138Z,11.50
2023-03-03T09:23:50.054Z,12.02
2023-03-03T09:26:29.814Z,11.23
2023-03-03T09:29:19.355Z,11.02
2023-03-03T09:31:49.644Z,11.50
2023-03-03T09:34:18.483Z,11.43
2023-03-03T09:36:45.106Z,16.73
2023-03-03T09:39:26.810Z,13.25
2023-03-03T09:42:21.784Z,13.68
2023-03-03T09:45:26.496Z,11.15
2023-03-03T09:48:20.025Z,11.63
2023-03-03T09:51:06.656Z,11.60
2023-03-03T09:54:11.888Z,11.15
2023-03-03T09:56:51.891Z,13.02
2023-03-03T09:59:43.498Z,12.00
2023-03-03T10:02:37.370Z,11.13
2023-03-03T10:05:19.314Z,11.50
2023-03-03T10:08:20.323Z,10.45
2023-03-03T10:10:53.863Z,9.82
2023-03-03T10:13:32.305Z,10.50
2023-03-03T10:16:17.892Z,10.65
2023-03-03T10:18:53.590Z,10.05
2023-03-03T10:21:25.844Z,8.63
2023-03-03T10:24:11.229Z,9.13
2023-03-03T10:27:13.849Z,10.45
2023-03-03T10:29:59.570Z,9.65
2023-03-03T10:32:38.467Z,22.15
2023-03-03T10:35:23.311Z,22.50
2023-03-03T10:38:20.346Z,13.82
2023-03-03T10:41:11.345Z,10.52
2023-03-03T10:43:52.633Z,11.05
2023-03-03T10:46:44.061Z,10.95
2023-03-03T10:49:39.623Z,13.93
2023-03-03T10:52:20.173Z,10.43
2023-03-03T10:55:05.802Z,9.45
2023-03-03T10:57:55.041Z,8.70
2023-03-03T11:00:31.339Z,9.98
2023-03-03T11:03:50.654Z,12.27
2023-03-03T11:06:22.715Z,9.15
2023-03-03T11:08:54.223Z,9.68
2023-03-03T11:11:49.463Z,9.70
2023-03-03T11:14:30.637Z,10.27
2023-03-03T11:17:24.342Z,11.48
2023-03-03T11:20:31.926Z,10.38
2023-03-03T11:23:08.791Z,13.25
2023-03-03T11:25:51.125Z,11.13
2023-03-03T11:28:27.335Z,9.40
2023-03-03T11:31:29.305Z,10.85
2023-03-03T11:34:18.009Z,9.55
2023-03-03T11:36:50.821Z,9.32
2023-03-03T11:39:21.407Z,10.00
2023-03-03T11:42:18.493Z,9.45
2023-03-03T11:44:48.814Z,9.15
2023-03-03T11:47:26.545Z,9.23
2023-03-03T11:50:19.554Z,9.30
2023-03-03T11:53:21.330Z,9.52
2023-03-03T11:55:54.667Z,9.48
2023-03-03T11:58:35.251Z,9.23
2023-03-03T12:01:28.391Z,9.00
2023-03-03T12:04:02.268Z,9.43
2023-03-03T12:07:19.112Z,9.20
2023-03-03T12:10:37.631Z,8.60
2023-03-03T12:13:41.735Z,9.07
2023-03-03T12:16:18.663Z,13.80
2023-03-03T12:19:01.113Z,8.35
2023-03-03T12:21:40.879Z,9.50
2023-03-03T12:24:20.101Z,9.15
2023-03-03T12:27:11.655Z,9.50
2023-03-03T12:29:47.156Z,9.50
2023-03-03T12:33:11.243Z,8.55
2023-03-03T12:36:14.824Z,8.38
2023-03-03T12:39:09.354Z,8.63
2023-03-03T12:41:43.167Z,9.02
2023-03-03T12:44:34.952Z,9.07
2023-03-03T12:47:08.354Z,8.20
2023-03-03T12:50:06.946Z,9.07
2023-03-03T12:52:47.216Z,8.85
2023-03-03T12:58:36.067Z,8.68
2023-03-03T13:01:28.723Z,8.25
2023-03-03T13:04:14.003Z,8.57
2023-03-03T13:07:11.602Z,7.72
2023-03-03T13:10:20.196Z,29.25
2023-03-03T13:13:10.028Z,10.65
2023-03-03T13:15:55.254Z,22.40
2023-03-03T13:18:51.010Z,9.15
2023-03-03T13:21:27.483Z,9.52
2023-03-03T13:24:24.093Z,9.25
2023-03-03T13:26:57.636Z,8.63
2023-03-03T13:29:28.767Z,9.05
2023-03-03T13:32:12.359Z,7.70
2023-03-03T13:35:07.867Z,8.03
2023-03-03T13:37:46.146Z,8.77
2023-03-03T13:40:16.949Z,7.72
2023-03-03T13:43:15.603Z,8.70
2023-03-03T13:46:14.970Z,8.68
2023-03-03T13:48:50.635Z,8.13
2023-03-03T13:52:03.687Z,8.32
2023-03-03T13:54:51.127Z,7.70
2023-03-03T13:57:48.596Z,8.35
2023-03-03T14:00:45.237Z,8.93
2023-03-03T14:03:37.254Z,8.82
2023-03-03T14:06:11.911Z,9.40
2023-03-03T14:09:01.278Z,11.40
2023-03-03T14:11:30.449Z,9.68
2023-03-03T14:14:36.196Z,9.60
2023-03-03T14:17:08.906Z,9.57
2023-03-03T14:19:39.132Z,8.43
2023-03-03T14:22:38.927Z,9.40
2023-03-03T14:25:09.226Z,22.02
2023-03-03T14:27:41.574Z,9.70
2023-03-03T14:30:29.392Z,10.02
2023-03-03T14:33:32.487Z,9.73
2023-03-03T14:36:04.620Z,11.20
2023-03-03T14:38:34.407Z,11.35
2023-03-03T14:41:36.218Z,9.65
2023-03-03T14:44:27.162Z,9.35
2023-03-03T14:47:27.732Z,8.73
2023-03-03T14:50:00.499Z,10.82
2023-03-03T14:52:29.573Z,9.00
2023-03-03T14:55:00.044Z,9.90
2023-03-03T14:57:53.194Z,8.63
2023-03-03T15:00:35.910Z,9.13
2023-03-03T15:03:22.004Z,9.63
2023-03-03T15:05:50.946Z,8.65
2023-03-03T15:08:28.696Z,8.73
2023-03-03T15:10:56.347Z,8.52
2023-03-03T15:13:35.617Z,9.00
2023-03-03T15:16:19.742Z,9.27
2023-03-03T15:19:18.764Z,10.15
2023-03-03T15:21:56.607Z,9.00
2023-03-03T15:24:33.185Z,8.77
2023-03-03T15:27:13.476Z,9.80
2023-03-03T15:30:03.074Z,9.23
2023-03-03T15:32:40.780Z,8.77
2023-03-03T15:35:25.802Z,19.70
2023-03-03T15:38:00.895Z,15.65
2023-03-03T15:40:44.360Z,14.38
2023-03-03T15:43:32.609Z,10.43
2023-03-03T15:46:25.793Z,15.23
2023-03-03T15:49:18.619Z,9.30
2023-03-03T15:52:36.394Z,9.23
2023-03-03T15:55:21.285Z,10.35
2023-03-03T15:58:15.620Z,14.82
2023-03-03T16:01:11.129Z,9.48
2023-03-03T16:03:55.482Z,9.18
2023-03-03T16:06:48.930Z,10.32
2023-03-03T16:09:56.504Z,9.88
2023-03-03T16:12:35.227Z,11.40
2023-03-03T16:15:20.094Z,10.02
2023-03-03T16:18:19.041Z,10.60
2023-03-03T16:21:20.536Z,10.05
2023-03-03T16:31:11.501Z,11.88
2023-03-03T16:34:03.990Z,13.50
2023-03-03T16:36:53.732Z,9.73
2023-03-03T16:39:33.848Z,9.55
2023-03-03T16:42:14.793Z,10.57
2023-03-03T16:45:11.328Z,9.13
2023-03-03T16:47:40.840Z,27.70
2023-03-03T16:50:43.894Z,9.00
2023-03-03T16:54:03.243Z,15.82
2023-03-03T16:56:55.156Z,9.75
2023-03-03T16:59:47.182Z,16.48
2023-03-03T17:02:46.736Z,10.32
2023-03-03T17:05:54.413Z,10.93
2023-03-03T17:09:03.118Z,19.45
2023-03-03T17:11:48.274Z,9.45
2023-03-03T17:14:56.501Z,13.63
2023-03-03T17:17:54.123Z,11.95
2023-03-03T17:20:39.646Z,75.93
2023-03-03T17:27:02.714Z,9.35
2023-03-03T17:29:51.237Z,8.88
2023-03-03T17:32:36.305Z,30.20
2023-03-03T17:35:19.941Z,9.73
2023-03-03T17:38:03.067Z,9.93
2023-03-03T17:41:17.208Z,15.82
2023-03-03T17:44:00.985Z,10.30
2023-03-03T17:46:58.343Z,10.07
2023-03-03T17:49:50.352Z,25.42
2023-03-03T17:52:32.542Z,16.35
2023-03-03T17:55:49.805Z,14.95
2023-03-03T17:58:42.994Z,15.00
2023-03-03T18:01:27.825Z,10.63
2023-03-03T18:04:31.999Z,16.17
2023-03-03T18:07:54.126Z,9.27
2023-03-03T18:11:02.053Z,11.32
2023-03-03T18:14:14.890Z,9.07
2023-03-03T18:17:29.283Z,11.63
2023-03-03T18:20:14.663Z,27.25
2023-03-03T18:22:50.956Z,9.60
2023-03-03T18:25:55.482Z,8.30
2023-03-03T18:28:23.496Z,13.68
2023-03-03T18:31:00.497Z,15.10
2023-03-03T18:33:42.290Z,19.25
2023-03-03T18:36:37.646Z,15.45
2023-03-03T18:39:05.738Z,10.02
2023-03-03T18:41:34.259Z,9.73
2023-03-03T18:44:04.741Z,11.27
2023-03-03T18:46:52.136Z,7.78
2023-03-03T18:49:19.385Z,7.65
2023-03-03T18:51:50.486Z,8.07
2023-03-03T18:54:30.937Z,11.43
2023-03-03T18:57:18.422Z,11.13
2023-03-03T19:00:12.235Z,10.05
2023-03-03T19:02:46.684Z,11.90
2023-03-03T19:05:24.664Z,8.82
2023-03-03T19:07:52.629Z,8.35
2023-03-03T19:10:58.049Z,9.63
2023-03-03T19:13:38.165Z,13.85
2023-03-03T19:16:31.335Z,15.95
2023-03-03T19:19:01.217Z,12.50
2023-03-03T19:21:33.658Z,11.15
2023-03-03T19:24:03.055Z,8.45
2023-03-03T19:27:05.694Z,9.15
2023-03-03T19:30:07.434Z,9.00
2023-03-03T19:32:57.495Z,20.25
2023-03-03T19:35:38.017Z,20.88
2023-03-03T19:38:43.607Z,18.48
2023-03-03T19:41:28.988Z,15.88
2023-03-03T19:44:46.860Z,13.30
2023-03-03T19:47:40.395Z,14.30
2023-03-03T19:50:17.077Z,21.85
2023-03-03T19:53:15.392Z,18.77
2023-03-03T19:56:06.555Z,23.85
2023-03-03T19:59:03.871Z,24.23
2023-03-03T20:01:44.628Z,21.30
2023-03-03T20:04:38.528Z,19.60
2023-03-03T20:07:40.349Z,16.10
2023-03-03T20:10:42.310Z,18.55
2023-03-03T20:13:30.582Z,17.50
2023-03-03T20:16:41.684Z,13.95
2023-03-03T20:19:22.436Z,19.85
2023-03-03T20:22:09.764Z,13.50
2023-03-03T20:25:10.814Z,11.27
2023-03-03T20:28:14.413Z,10.43
2023-03-03T20:30:59.424Z,18.52
2023-03-03T20:34:05.189Z,15.23
2023-03-03T20:36:53.777Z,14.45
2023-03-03T20:43:00.526Z,16.92
2023-03-03T20:45:50.773Z,16.75
2023-03-03T20:49:00.935Z,17.00
2023-03-03T20:52:03.091Z,17.05
2023-03-03T20:54:49.476Z,16.30
2023-03-03T20:57:34.279Z,14.68
2023-03-03T21:00:05.973Z,13.57
2023-03-03T21:02:54.026Z,12.95
2023-03-03T21:05:25.432Z,12.63
2023-03-03T21:08:09.834Z,12.88
2023-03-03T21:13:41.178Z,11.93
2023-03-03T21:16:43.936Z,13.40
2023-03-03T21:21:55.234Z,13.00
2023-03-03T21:24:22.840Z,13.63
2023-03-03T21:26:58.118Z,13.35
2023-03-03T21:29:30.055Z,13.02
2023-03-03T21:31:58.657Z,14.57
2023-03-03T21:34:31.208Z,14.35
2023-03-03T21:36:59.485Z,15.57
2023-03-03T21:39:31.916Z,15.05
2023-03-03T21:42:07.377Z,14.98
2023-03-03T21:44:42.135Z,15.02
2023-03-03T21:47:10.807Z,14.57
2023-03-03T21:49:41.715Z,14.73
2023-03-03T21:52:09.254Z,14.27
2023-03-03T21:54:35.815Z,13.77
2023-03-03T21:57:02.435Z,12.70
2023-03-03T21:59:29.061Z,13.32
2023-03-03T22:01:55.618Z,13.95
2023-03-03T22:04:22.417Z,12.68
2023-03-03T22:06:49.097Z,12.18
2023-03-03T22:09:15.727Z,11.98
2023-03-03T22:11:42.384Z,13.07
2023-03-03T22:14:09.173Z,13.40
2023-03-03T22:16:35.841Z,12.95
2023-03-03T22:19:03.251Z,13.38
2023-03-03T22:21:30.651Z,12.63
2023-03-03T22:23:58.294Z,13.65
2023-03-03T22:26:24.877Z,12.70
2023-03-03T22:28:51.493Z,12.63
2023-03-03T22:31:19.124Z,12.40
2023-03-03T22:33:46.328Z,13.52
2023-03-03T22:36:13.091Z,13.43
2023-03-03T22:38:40.122Z,13.43
2023-03-03T22:41:06.821Z,14.50
2023-03-03T22:43:33.673Z,14.23
2023-03-03T22:46:01.281Z,14.57
2023-03-03T22:48:28.478Z,14.32
2023-03-03T22:50:55.365Z,14.25
2023-03-03T22:53:22.647Z,14.15
2023-03-03T22:55:49.587Z,14.25
2023-03-03T22:58:16.397Z,13.98
2023-03-03T23:00:43.564Z,13.82
2023-03-03T23:03:10.914Z,14.50
2023-03-03T23:05:37.981Z,14.18
2023-03-03T23:08:06.700Z,14.35
2023-03-03T23:10:33.895Z,15.70
2023-03-03T23:13:00.511Z,14.57
2023-03-03T23:15:27.127Z,14.57
2023-03-03T23:17:53.705Z,14.63
2023-03-03T23:20:24.097Z,14.40
2023-03-03T23:22:51.281Z,15.25
2023-03-03T23:25:18.228Z,15.60
2023-03-03T23:27:44.838Z,15.75
2023-03-03T23:30:13.421Z,15.27
2023-03-03T23:32:40.574Z,14.75
2023-03-03T23:35:08.043Z,13.93
2023-03-03T23:37:34.687Z,13.95
2023-03-03T23:40:01.268Z,13.95
2023-03-03T23:42:33.821Z,15.18
2023-03-03T23:45:00.532Z,16.73
2023-03-03T23:47:27.344Z,17.00
2023-03-03T23:49:53.868Z,17.58
2023-03-03T23:52:20.416Z,16.90
2023-03-03T23:54:47.113Z,16.63
2023-03-03T23:57:13.630Z,16.25
2023-03-03T23:59:40.752Z,16.83
